createdAt,value
2023-10-25T00:01:07.148Z,5.43
2023-10-25T00:03:33.920Z,5.65
2023-10-25T00:06:00.583Z,6.60
2023-10-25T00:08:27.096Z,5.70
2023-10-25T00:11:05.606Z,6.53
2023-10-25T00:13:32.457Z,6.68
2023-10-25T00:15:59.079Z,6.07
2023-10-25T00:18:25.830Z,5.82
2023-10-25T00:20:53.252Z,6.20
2023-10-25T00:23:20.745Z,6.00
2023-10-25T00:25:49.710Z,6.40
2023-10-25T00:28:16.907Z,6.25
2023-10-25T00:30:45.129Z,6.38
2023-10-25T00:33:12.020Z,7.07
2023-10-25T00:35:38.679Z,6.43
2023-10-25T00:38:05.493Z,5.95
2023-10-25T00:40:32.213Z,5.90
2023-10-25T00:43:14.676Z,5.30
2023-10-25T00:46:00.811Z,5.55
2023-10-25T00:48:28.542Z,5.45
2023-10-25T00:50:55.478Z,5.03
2023-10-25T00:53:24.375Z,5.05
2023-10-25T00:55:53.825Z,4.82
2023-10-25T00:58:20.862Z,5.07
2023-10-25T01:00:48.494Z,6.00
2023-10-25T01:03:17.220Z,5.97
2023-10-25T01:05:44.697Z,6.40
2023-10-25T01:08:11.231Z,6.05
2023-10-25T01:10:37.817Z,5.50
2023-10-25T01:13:04.342Z,5.40
2023-10-25T01:15:31.046Z,5.45
2023-10-25T01:17:57.693Z,5.40
2023-10-25T01:20:24.217Z,4.93
2023-10-25T01:22:50.695Z,5.35
2023-10-25T01:25:17.321Z,5.50
2023-10-25T01:27:43.903Z,6.72
2023-10-25T01:30:11.555Z,5.97
2023-10-25T01:32:38.130Z,5.30
2023-10-25T01:35:04.968Z,5.07
2023-10-25T01:37:31.535Z,5.72
2023-10-25T01:39:58.111Z,5.88
2023-10-25T01:42:24.696Z,5.80
2023-10-25T01:44:51.296Z,7.53
2023-10-25T01:47:17.779Z,7.47
2023-10-25T01:49:44.444Z,8.93
2023-10-25T01:52:11.284Z,8.95
2023-10-25T01:54:38.073Z,9.15
2023-10-25T01:57:04.797Z,8.65
2023-10-25T01:59:31.331Z,8.77
2023-10-25T02:01:58.022Z,10.13
2023-10-25T02:04:24.782Z,7.97
2023-10-25T02:06:53.394Z,8.90
2023-10-25T02:09:20.654Z,8.48
2023-10-25T02:11:48.132Z,8.75
2023-10-25T02:14:15.115Z,9.20
2023-10-25T02:16:42.404Z,8.77
2023-10-25T02:19:09.086Z,9.73
2023-10-25T02:21:38.566Z,8.40
2023-10-25T02:24:06.150Z,8.00
2023-10-25T02:26:33.052Z,8.50
2023-10-25T02:29:01.052Z,7.97
2023-10-25T02:31:27.826Z,8.43
2023-10-25T02:33:54.584Z,8.55
2023-10-25T02:36:21.170Z,8.52
2023-10-25T02:38:49.333Z,7.22
2023-10-25T02:41:17.006Z,7.50
2023-10-25T02:43:44.494Z,8.13
2023-10-25T02:46:13.618Z,9.13
2023-10-25T02:48:40.937Z,8.30
2023-10-25T02:51:08.166Z,8.52
2023-10-25T02:53:34.999Z,9.35
2023-10-25T02:56:03.643Z,9.63
2023-10-25T02:58:30.355Z,10.02
2023-10-25T03:01:00.291Z,11.60
2023-10-25T03:03:35.665Z,10.77
2023-10-25T03:06:02.650Z,11.48
2023-10-25T03:08:29.494Z,10.00
2023-10-25T03:10:57.224Z,10.63
2023-10-25T03:13:23.871Z,10.15
2023-10-25T03:15:50.700Z,10.60
2023-10-25T03:18:17.356Z,11.32
2023-10-25T03:20:43.900Z,12.45
2023-10-25T03:23:10.635Z,11.93
2023-10-25T03:25:37.117Z,11.70
2023-10-25T03:28:03.714Z,12.98
2023-10-25T03:30:30.289Z,12.15
2023-10-25T03:32:56.816Z,12.32
2023-10-25T03:35:23.397Z,10.98
2023-10-25T03:37:49.958Z,11.70
2023-10-25T03:40:16.490Z,12.05
2023-10-25T03:42:43.136Z,13.02
2023-10-25T03:45:10.589Z,11.52
2023-10-25T03:47:38.967Z,11.50
2023-10-25T03:50:08.883Z,10.63
2023-10-25T03:52:35.407Z,10.90
2023-10-25T03:55:02.001Z,11.75
2023-10-25T03:57:28.555Z,10.55
2023-10-25T03:59:55.080Z,10.77
2023-10-25T04:02:21.706Z,10.57
2023-10-25T04:04:48.392Z,10.50
2023-10-25T04:07:15.514Z,10.00
2023-10-25T04:09:42.727Z,10.05
2023-10-25T04:12:13.447Z,9.48
2023-10-25T04:14:46.778Z,10.45
2023-10-25T04:17:13.613Z,9.73
2023-10-25T04:19:41.826Z,10.43
2023-10-25T04:22:09.218Z,8.75
2023-10-25T04:24:35.980Z,9.07
2023-10-25T04:27:03.005Z,8.48
2023-10-25T04:29:30.032Z,9.52
2023-10-25T04:31:56.930Z,9.23
2023-10-25T04:34:24.004Z,10.38
2023-10-25T04:36:50.679Z,9.50
2023-10-25T04:39:17.277Z,9.13
2023-10-25T04:41:44.124Z,8.68
2023-10-25T04:44:10.686Z,8.27
2023-10-25T04:46:37.420Z,9.45
2023-10-25T04:49:04.467Z,8.60
2023-10-25T04:51:31.115Z,9.43
2023-10-25T04:53:57.902Z,9.27
2023-10-25T04:56:24.645Z,9.63
2023-10-25T04:58:51.440Z,8.52
2023-10-25T05:01:18.147Z,8.43
2023-10-25T05:03:45.310Z,8.82
2023-10-25T05:06:12.413Z,9.32
2023-10-25T05:08:39.204Z,8.98
2023-10-25T05:11:07.531Z,9.10
2023-10-25T05:13:34.597Z,8.90
2023-10-25T05:16:01.668Z,9.02
2023-10-25T05:18:28.916Z,9.57
2023-10-25T05:20:59.127Z,10.07
2023-10-25T05:23:33.232Z,10.82
2023-10-25T05:26:02.522Z,11.48
2023-10-25T05:28:33.301Z,11.52
2023-10-25T05:31:03.301Z,12.38
2023-10-25T05:33:33.777Z,13.35
2023-10-25T05:36:02.395Z,14.10
2023-10-25T05:38:30.461Z,13.35
2023-10-25T05:40:59.326Z,13.98
2023-10-25T05:43:31.726Z,12.90
2023-10-25T05:45:58.507Z,11.10
2023-10-25T05:48:25.493Z,10.68
2023-10-25T05:50:52.483Z,14.35
2023-10-25T05:53:20.232Z,12.57
2023-10-25T05:55:47.402Z,13.60
2023-10-25T05:58:14.629Z,13.75
2023-10-25T06:00:41.672Z,14.07
2023-10-25T06:03:24.921Z,13.40
2023-10-25T06:06:01.291Z,12.48
2023-10-25T06:08:28.272Z,13.32
2023-10-25T06:10:55.761Z,12.70
2023-10-25T06:13:22.542Z,13.35
2023-10-25T06:15:49.203Z,12.68
2023-10-25T06:18:15.816Z,12.80
2023-10-25T06:20:42.357Z,11.73
2023-10-25T06:23:08.849Z,11.50
2023-10-25T06:25:35.417Z,11.43
2023-10-25T06:28:01.994Z,11.57
2023-10-25T06:30:28.667Z,11.55
2023-10-25T06:32:58.978Z,10.70
2023-10-25T06:35:25.696Z,11.07
2023-10-25T06:37:52.722Z,11.50
2023-10-25T06:40:19.687Z,11.43
2023-10-25T06:42:46.625Z,11.65
2023-10-25T06:45:15.917Z,11.55
2023-10-25T06:47:43.818Z,11.30
2023-10-25T06:50:12.955Z,11.13
2023-10-25T06:52:39.965Z,11.38
2023-10-25T06:55:07.369Z,11.90
2023-10-25T06:57:34.524Z,10.80
2023-10-25T07:00:02.568Z,14.40
2023-10-25T07:02:40.510Z,13.73
2023-10-25T07:05:14.610Z,13.18
2023-10-25T07:07:45.223Z,11.13
2023-10-25T07:10:13.096Z,8.57
2023-10-25T07:12:40.094Z,7.88
2023-10-25T07:15:07.139Z,7.28
2023-10-25T07:17:33.862Z,7.80
2023-10-25T07:20:00.398Z,6.47
2023-10-25T07:22:28.368Z,6.90
2023-10-25T07:24:56.705Z,6.43
2023-10-25T07:27:23.527Z,5.80
2023-10-25T07:29:50.324Z,5.45
2023-10-25T07:32:19.587Z,6.20
2023-10-25T07:34:46.409Z,6.07
2023-10-25T07:37:13.155Z,6.47
2023-10-25T07:39:41.409Z,6.30
2023-10-25T07:42:08.570Z,7.25
2023-10-25T07:44:35.953Z,6.45
2023-10-25T07:47:02.861Z,5.25
2023-10-25T07:49:29.581Z,3.65
2023-10-25T07:51:56.207Z,4.20
2023-10-25T07:54:23.066Z,3.45
2023-10-25T07:59:19.768Z,3.50
2023-10-25T08:01:46.460Z,2.90
2023-10-25T08:04:13.342Z,2.45
2023-10-25T08:06:40.178Z,2.00
2023-10-25T08:09:06.910Z,2.30
2023-10-25T08:11:36.726Z,2.60
2023-10-25T08:14:03.910Z,2.33
2023-10-25T08:16:30.823Z,2.60
2023-10-25T08:18:57.491Z,2.75
2023-10-25T08:21:24.137Z,3.28
2023-10-25T08:23:53.075Z,3.00
2023-10-25T08:26:22.831Z,3.08
2023-10-25T08:28:49.505Z,2.90
2023-10-25T08:31:18.555Z,3.03
2023-10-25T08:33:45.660Z,3.08
2023-10-25T08:36:12.765Z,3.13
2023-10-25T08:38:39.719Z,3.40
2023-10-25T08:41:07.791Z,3.53
2023-10-25T08:43:36.640Z,3.70
2023-10-25T08:46:04.702Z,4.15
2023-10-25T08:48:33.121Z,3.55
2023-10-25T08:51:01.155Z,3.80
2023-10-25T08:53:29.409Z,3.30
2023-10-25T08:55:57.646Z,3.10
2023-10-25T08:58:26.148Z,3.58
2023-10-25T09:00:54.206Z,3.30
2023-10-25T09:03:33.378Z,3.78
2023-10-25T09:06:01.802Z,3.38
2023-10-25T09:08:28.722Z,3.20
2023-10-25T09:11:06.414Z,2.65
2023-10-25T09:13:36.543Z,3.10
2023-10-25T09:16:08.635Z,2.58
2023-10-25T09:18:37.015Z,3.17
2023-10-25T09:21:12.270Z,2.90
2023-10-25T09:23:40.337Z,2.80
2023-10-25T09:26:19.512Z,3.20
2023-10-25T09:28:49.093Z,2.65
2023-10-25T09:31:27.348Z,3.00
2023-10-25T09:33:54.731Z,3.33
2023-10-25T09:36:22.365Z,2.50
2023-10-25T09:38:51.260Z,2.28
2023-10-25T09:41:18.770Z,2.45
2023-10-25T09:43:49.361Z,2.50
2023-10-25T09:46:21.096Z,2.55
2023-10-25T09:48:55.892Z,2.60
2023-10-25T09:51:42.910Z,2.20
2023-10-25T09:54:13.954Z,2.05
2023-10-25T09:56:41.812Z,1.90
2023-10-25T09:59:12.039Z,2.10
2023-10-25T10:01:40.670Z,2.10
2023-10-25T10:04:14.144Z,2.08
2023-10-25T10:07:03.102Z,2.42
2023-10-25T10:09:35.105Z,2.38
2023-10-25T10:14:38.466Z,1.77
2023-10-25T10:17:06.639Z,2.10
2023-10-25T10:19:34.173Z,2.17
2023-10-25T10:22:08.785Z,2.58
2023-10-25T10:24:55.088Z,2.40
2023-10-25T10:27:28.474Z,2.05
2023-10-25T10:29:55.553Z,2.35
2023-10-25T10:32:22.806Z,1.30
2023-10-25T10:35:00.743Z,1.65
2023-10-25T10:37:30.762Z,1.10
2023-10-25T10:39:59.355Z,1.02
2023-10-25T10:42:30.272Z,0.93
2023-10-25T10:45:03.045Z,0.80
2023-10-25T10:47:42.751Z,0.63
2023-10-25T10:50:20.272Z,0.80
2023-10-25T10:52:49.239Z,0.70
2023-10-25T10:55:24.922Z,0.65
2023-10-25T11:12:54.735Z,0.90
2023-10-25T11:15:25.544Z,0.68
2023-10-25T11:17:52.604Z,0.93
2023-10-25T11:20:19.263Z,1.10
2023-10-25T11:22:46.891Z,0.73
2023-10-25T11:25:21.749Z,0.90
2023-10-25T11:27:48.636Z,1.05
2023-10-25T11:30:15.878Z,0.82
2023-10-25T11:32:45.873Z,1.08
2023-10-25T11:35:23.885Z,0.82
2023-10-25T11:37:52.329Z,0.90
2023-10-25T11:40:20.047Z,1.05
2023-10-25T11:42:47.128Z,0.73
2023-10-25T11:45:13.901Z,0.90
2023-10-25T11:47:41.363Z,1.10
2023-10-25T11:50:09.306Z,0.90
2023-10-25T11:52:35.869Z,0.77
2023-10-25T11:55:03.579Z,0.80
2023-10-25T11:57:31.951Z,0.70
2023-10-25T11:59:59.180Z,0.70
2023-10-25T12:02:27.108Z,0.77
2023-10-25T12:04:55.010Z,0.70
2023-10-25T12:07:22.580Z,0.80
2023-10-25T12:09:50.531Z,0.85
2023-10-25T12:12:17.734Z,0.85
2023-10-25T12:14:45.060Z,0.70
2023-10-25T12:17:12.072Z,0.70
2023-10-25T12:19:40.826Z,0.70
2023-10-25T12:22:11.120Z,0.80
2023-10-25T12:24:38.841Z,0.80
2023-10-25T12:27:06.957Z,0.70
2023-10-25T12:29:33.974Z,0.90
2023-10-25T12:32:01.052Z,0.80
2023-10-25T12:34:27.749Z,0.75
2023-10-25T12:36:54.509Z,0.52
2023-10-25T12:39:21.595Z,0.75
2023-10-25T12:41:49.006Z,0.60
2023-10-25T12:44:15.870Z,0.73
2023-10-25T12:46:43.551Z,0.57
2023-10-25T12:49:12.327Z,0.40
2023-10-25T12:51:39.284Z,0.60
2023-10-25T12:54:07.962Z,0.75
2023-10-25T12:56:36.198Z,0.50
2023-10-25T12:59:03.376Z,0.60
2023-10-25T13:01:30.144Z,0.60
2023-10-25T13:03:56.971Z,0.40
2023-10-25T13:06:23.940Z,0.52
2023-10-25T13:08:50.543Z,0.50
2023-10-25T13:11:17.538Z,0.40
2023-10-25T13:13:44.233Z,0.57
2023-10-25T13:16:10.932Z,0.60
2023-10-25T13:18:37.670Z,0.45
2023-10-25T13:21:05.016Z,0.43
2023-10-25T13:23:31.709Z,0.60
2023-10-25T13:25:58.362Z,0.73
2023-10-25T13:28:24.914Z,0.68
2023-10-25T13:30:51.455Z,0.80
2023-10-25T13:33:18.060Z,0.40
2023-10-25T13:35:44.693Z,0.43
2023-10-25T13:38:11.238Z,0.60
2023-10-25T13:40:37.782Z,0.63
2023-10-25T13:43:04.735Z,0.35
2023-10-25T13:45:31.885Z,0.57
2023-10-25T13:47:58.527Z,0.50
2023-10-25T13:50:25.310Z,0.47
2023-10-25T13:52:52.977Z,0.45
2023-10-25T13:55:21.296Z,0.43
2023-10-25T13:57:47.938Z,0.40
2023-10-25T14:00:14.928Z,0.55
2023-10-25T14:02:41.784Z,0.40
2023-10-25T14:05:09.012Z,0.43
2023-10-25T14:07:35.672Z,0.40
2023-10-25T14:10:03.021Z,0.50
2023-10-25T14:12:31.144Z,0.60
2023-10-25T14:14:57.713Z,0.52
2023-10-25T14:17:24.417Z,0.52
2023-10-25T14:19:51.110Z,0.30
2023-10-25T14:22:17.750Z,0.45
2023-10-25T14:24:44.978Z,0.50
2023-10-25T14:27:11.722Z,0.40
2023-10-25T14:29:38.404Z,0.38
2023-10-25T14:32:06.048Z,0.50
2023-10-25T14:34:32.687Z,0.50
2023-10-25T14:36:59.441Z,0.50
2023-10-25T14:39:26.052Z,0.30
2023-10-25T14:41:52.704Z,0.43
2023-10-25T14:44:19.247Z,0.60
2023-10-25T14:46:46.290Z,0.60
2023-10-25T14:49:15.173Z,0.40
2023-10-25T14:51:43.045Z,0.47
2023-10-25T14:54:11.070Z,0.68
2023-10-25T14:56:37.915Z,0.55
2023-10-25T14:59:04.565Z,0.52
2023-10-25T15:01:31.176Z,0.60
2023-10-25T15:03:58.426Z,0.60
2023-10-25T15:06:29.665Z,0.30
2023-10-25T15:08:57.342Z,0.70
2023-10-25T15:11:24.143Z,0.70
2023-10-25T15:13:50.999Z,0.65
2023-10-25T15:16:18.997Z,0.68
2023-10-25T15:18:46.254Z,0.90
2023-10-25T15:21:21.719Z,0.70
2023-10-25T15:23:50.110Z,0.70
2023-10-25T15:26:16.757Z,0.52
2023-10-25T15:28:44.281Z,0.40
2023-10-25T15:31:12.583Z,0.57
2023-10-25T15:33:40.700Z,0.60
2023-10-25T15:36:07.844Z,0.50
2023-10-25T15:38:36.723Z,0.43
2023-10-25T15:41:20.294Z,0.60
2023-10-25T15:43:48.365Z,0.60
2023-10-25T15:46:16.067Z,0.70
2023-10-25T15:48:47.348Z,0.75
2023-10-25T15:51:15.061Z,0.55
2023-10-25T15:53:45.495Z,0.50
2023-10-25T15:56:16.589Z,0.80
2023-10-25T15:58:44.757Z,0.75
2023-10-25T16:01:23.042Z,0.40
2023-10-25T16:03:58.546Z,0.85
2023-10-25T16:06:25.261Z,0.40
2023-10-25T16:08:51.892Z,0.73
2023-10-25T16:11:20.202Z,0.60
2023-10-25T16:13:49.413Z,0.63
2023-10-25T16:16:16.076Z,0.70
2023-10-25T16:18:42.998Z,0.80
2023-10-25T16:21:09.774Z,0.80
2023-10-25T16:23:42.790Z,0.68
2023-10-25T16:26:10.554Z,0.88
2023-10-25T16:28:38.860Z,0.70
2023-10-25T16:31:06.158Z,0.80
2023-10-25T16:33:36.933Z,0.60
2023-10-25T16:36:05.708Z,0.68
2023-10-25T16:38:33.038Z,0.90
2023-10-25T16:41:12.916Z,0.55
2023-10-25T16:43:40.238Z,0.57
2023-10-25T16:46:08.219Z,0.60
2023-10-25T16:48:37.254Z,0.88
2023-10-25T16:51:24.903Z,0.63
2023-10-25T16:53:51.768Z,0.70
2023-10-25T16:56:21.500Z,0.77
2023-10-25T16:58:48.395Z,0.90
2023-10-25T17:01:16.216Z,0.82
2023-10-25T17:03:44.347Z,0.70
2023-10-25T17:06:14.042Z,0.98
2023-10-25T17:08:41.658Z,0.90
2023-10-25T17:11:09.738Z,0.70
2023-10-25T17:13:37.957Z,1.08
2023-10-25T17:16:05.324Z,0.60
2023-10-25T17:18:33.487Z,0.88
2023-10-25T17:21:01.171Z,0.70
2023-10-25T17:23:28.057Z,0.70
2023-10-25T17:25:56.331Z,0.75
2023-10-25T17:28:23.941Z,0.90
2023-10-25T17:30:50.603Z,0.80
2023-10-25T17:33:17.548Z,0.80
2023-10-25T17:35:50.574Z,0.70
2023-10-25T17:38:19.011Z,0.80
2023-10-25T17:40:49.928Z,0.88
2023-10-25T17:43:17.064Z,0.93
2023-10-25T17:46:00.274Z,0.95
2023-10-25T17:48:30.880Z,1.00
2023-10-25T17:50:57.491Z,0.80
2023-10-25T17:53:24.181Z,1.15
2023-10-25T17:55:51.098Z,1.67
2023-10-25T17:58:17.915Z,0.82
2023-10-25T18:00:45.957Z,0.90
2023-10-25T18:03:13.341Z,1.02
2023-10-25T18:05:40.398Z,0.90
2023-10-25T18:08:12.316Z,1.00
2023-10-25T18:10:45.194Z,1.00
2023-10-25T18:13:12.008Z,1.30
2023-10-25T18:15:39.300Z,1.20
2023-10-25T18:18:07.137Z,1.05
2023-10-25T18:20:34.488Z,0.95
2023-10-25T18:23:01.040Z,1.05
2023-10-25T18:25:29.396Z,0.82
2023-10-25T18:27:57.645Z,0.90
2023-10-25T18:30:27.287Z,0.90
2023-10-25T18:33:11.274Z,0.70
2023-10-25T18:35:38.136Z,0.90
2023-10-25T18:38:04.649Z,1.00
2023-10-25T18:40:31.237Z,0.77
2023-10-25T18:42:57.814Z,1.05
2023-10-25T18:45:24.428Z,1.27
2023-10-25T18:47:51.004Z,1.50
2023-10-25T18:50:17.740Z,2.40
2023-10-25T18:52:44.268Z,2.60
2023-10-25T18:55:13.407Z,2.97
2023-10-25T18:57:39.948Z,2.30
2023-10-25T19:00:07.671Z,2.40
2023-10-25T19:02:34.658Z,2.90
2023-10-25T19:06:28.321Z,2.45
2023-10-25T19:08:26.414Z,2.65
2023-10-25T19:10:35.811Z,2.50
2023-10-25T19:13:04.242Z,2.58
2023-10-25T19:15:31.700Z,3.10
2023-10-25T19:17:58.383Z,2.90
2023-10-25T19:20:27.018Z,2.47
2023-10-25T19:22:53.681Z,1.40
2023-10-25T19:25:20.194Z,1.50
2023-10-25T19:27:46.772Z,1.60
2023-10-25T19:30:16.164Z,1.52
2023-10-25T19:32:43.916Z,1.38
2023-10-25T19:35:10.654Z,1.50
2023-10-25T19:37:37.203Z,1.50
2023-10-25T19:40:04.057Z,1.80
2023-10-25T19:42:30.541Z,2.20
2023-10-25T19:44:57.100Z,1.90
2023-10-25T19:47:23.611Z,2.10
2023-10-25T19:49:50.129Z,1.85
2023-10-25T19:52:17.856Z,1.50
2023-10-25T19:54:44.688Z,1.23
2023-10-25T19:57:11.353Z,1.13
2023-10-25T19:59:37.901Z,1.40
2023-10-25T20:02:04.537Z,1.20
2023-10-25T20:04:31.530Z,0.95
2023-10-25T20:06:58.222Z,1.00
2023-10-25T20:09:24.736Z,0.80
2023-10-25T20:11:51.367Z,0.75
2023-10-25T20:14:17.915Z,0.70
2023-10-25T20:16:44.505Z,0.70
2023-10-25T20:19:11.101Z,0.90
2023-10-25T20:21:37.755Z,0.90
2023-10-25T20:24:04.484Z,0.80
2023-10-25T20:26:34.911Z,1.00
2023-10-25T20:29:02.528Z,0.97
2023-10-25T20:31:29.083Z,1.30
2023-10-25T20:33:55.746Z,1.30
2023-10-25T20:36:23.459Z,1.27
2023-10-25T20:38:50.489Z,1.40
2023-10-25T20:41:17.352Z,1.48
2023-10-25T20:43:43.909Z,1.23
2023-10-25T20:46:10.690Z,1.70
2023-10-25T20:48:37.660Z,1.67
2023-10-25T20:51:05.448Z,1.73
2023-10-25T20:53:34.097Z,1.48
2023-10-25T20:56:01.032Z,1.45
2023-10-25T20:58:31.115Z,1.80
2023-10-25T21:00:57.745Z,1.90
2023-10-25T21:03:24.505Z,2.00
2023-10-25T21:05:56.085Z,1.98
2023-10-25T21:08:23.341Z,2.10
2023-10-25T21:10:50.700Z,2.42
2023-10-25T21:13:17.514Z,2.15
2023-10-25T21:15:44.133Z,2.75
2023-10-25T21:18:11.808Z,2.60
2023-10-25T21:20:46.229Z,2.60
2023-10-25T21:23:13.076Z,2.60
2023-10-25T21:25:39.702Z,2.95
2023-10-25T21:28:06.373Z,2.90
2023-10-25T21:30:33.132Z,2.95
2023-10-25T21:32:59.775Z,3.22
2023-10-25T21:35:26.531Z,3.30
2023-10-25T21:37:53.022Z,3.03
2023-10-25T21:40:19.616Z,3.40
2023-10-25T21:42:46.109Z,3.30
2023-10-25T21:45:12.759Z,3.60
2023-10-25T21:47:39.364Z,3.80
2023-10-25T21:50:06.232Z,4.05
2023-10-25T21:52:32.748Z,3.35
2023-10-25T21:54:59.317Z,4.03
2023-10-25T21:57:25.832Z,3.80
2023-10-25T21:59:55.080Z,4.00
2023-10-25T22:02:27.133Z,3.53
2023-10-25T22:04:54.595Z,3.70
2023-10-25T22:07:21.332Z,3.90
2023-10-25T22:09:48.174Z,3.88
2023-10-25T22:12:14.762Z,3.78
2023-10-25T22:14:41.359Z,4.22
2023-10-25T22:17:07.955Z,4.18
2023-10-25T22:19:34.585Z,4.30
2023-10-25T22:22:01.118Z,4.40
2023-10-25T22:24:27.686Z,4.35
2023-10-25T22:26:54.310Z,4.63
2023-10-25T22:29:20.997Z,4.93
2023-10-25T22:31:47.652Z,5.20
2023-10-25T22:34:18.373Z,4.57
2023-10-25T22:36:48.918Z,4.77
2023-10-25T22:39:16.468Z,4.90
2023-10-25T22:41:46.189Z,4.90
2023-10-25T22:44:13.351Z,5.10
2023-10-25T22:46:40.316Z,4.63
2023-10-25T22:49:06.988Z,4.93
2023-10-25T22:51:33.705Z,4.50
2023-10-25T22:54:00.291Z,4.95
2023-10-25T22:56:26.868Z,4.93
2023-10-25T22:58:53.365Z,4.90
2023-10-25T23:01:19.862Z,4.93
2023-10-25T23:03:46.528Z,4.68
2023-10-25T23:06:13.241Z,4.22
2023-10-25T23:08:39.774Z,4.60
2023-10-25T23:11:06.263Z,4.22
2023-10-25T23:13:32.761Z,4.15
2023-10-25T23:16:02.635Z,3.97
2023-10-25T23:18:30.897Z,4.20
2023-10-25T23:20:57.923Z,3.70
2023-10-25T23:23:24.625Z,3.42
2023-10-25T23:25:51.142Z,3.63
2023-10-25T23:28:17.678Z,4.10
2023-10-25T23:30:44.193Z,3.90
2023-10-25T23:33:10.833Z,4.20
2023-10-25T23:35:37.405Z,4.05
2023-10-25T23:38:04.595Z,3.80
2023-10-25T23:40:31.265Z,4.32
2023-10-25T23:42:57.822Z,4.10
2023-10-25T23:45:24.344Z,4.25
2023-10-25T23:47:51.418Z,4.00
2023-10-25T23:50:18.085Z,4.15
2023-10-25T23:52:46.386Z,4.43
2023-10-25T23:55:13.780Z,4.32
2023-10-25T23:57:41.378Z,4.20
